sensor_id;sensor_type;location;lat;lon;timestamp;P1;durP1;ratioP1;P2;durP2;ratioP2
59416;SDS011;45222;52.458;20.914;2023-10-31T00:01:07;21.00;;;14.60;;
59416;SDS011;45222;52.458;20.914;2023-10-31T00:04:55;21.60;;;14.50;;
59416;SDS011;45222;52.458;20.914;2023-10-31T00:08:43;22.10;;;15.30;;
59416;SDS011;45222;52.458;20.914;2023-10-31T00:12:30;18.80;;;14.30;;
59416;SDS011;45222;52.458;20.914;2023-10-31T00:16:19;19.70;;;14.20;;
59416;SDS011;45222;52.458;20.914;2023-10-31T00:20:07;21.30;;;15.60;;
59416;SDS011;45222;52.458;20.914;2023-10-31T00:23:55;18.20;;;14.20;;
59416;SDS011;45222;52.458;20.914;2023-10-31T00:27:43;19.90;;;14.10;;
59416;SDS011;45222;52.458;20.914;2023-10-31T00:31:31;20.10;;;13.20;;
59416;SDS011;45222;52.458;20.914;2023-10-31T00:35:20;17.70;;;12.90;;
59416;SDS011;45222;52.458;20.914;2023-10-31T00:39:07;18.30;;;12.60;;
59416;SDS011;45222;52.458;20.914;2023-10-31T00:42:55;22.80;;;13.60;;
59416;SDS011;45222;52.458;20.914;2023-10-31T00:46:45;18.20;;;13.40;;
59416;SDS011;45222;52.458;20.914;2023-10-31T00:50:33;18.90;;;13.20;;
59416;SDS011;45222;52.458;20.914;2023-10-31T00:54:20;17.30;;;12.10;;
59416;SDS011;45222;52.458;20.914;2023-10-31T00:58:08;19.20;;;12.80;;
59416;SDS011;45222;52.458;20.914;2023-10-31T01:01:56;19.10;;;11.90;;
59416;SDS011;45222;52.458;20.914;2023-10-31T01:05:44;19.30;;;12.50;;
59416;SDS011;45222;52.458;20.914;2023-10-31T01:09:32;16.20;;;12.00;;
59416;SDS011;45222;52.458;20.914;2023-10-31T01:13:20;17.70;;;11.10;;
59416;SDS011;45222;52.458;20.914;2023-10-31T01:17:08;15.60;;;11.40;;
59416;SDS011;45222;52.458;20.914;2023-10-31T01:20:56;18.20;;;11.60;;
59416;SDS011;45222;52.458;20.914;2023-10-31T01:24:43;16.30;;;10.30;;
59416;SDS011;45222;52.458;20.914;2023-10-31T01:28:31;17.80;;;10.80;;
59416;SDS011;45222;52.458;20.914;2023-10-31T01:32:19;17.90;;;10.20;;
59416;SDS011;45222;52.458;20.914;2023-10-31T01:36:08;15.20;;;10.00;;
59416;SDS011;45222;52.458;20.914;2023-10-31T01:39:57;16.70;;;11.10;;
59416;SDS011;45222;52.458;20.914;2023-10-31T01:43:45;15.80;;;11.10;;
59416;SDS011;45222;52.458;20.914;2023-10-31T01:47:33;15.10;;;10.70;;
59416;SDS011;45222;52.458;20.914;2023-10-31T01:51:20;15.70;;;10.60;;
59416;SDS011;45222;52.458;20.914;2023-10-31T01:55:09;18.80;;;11.00;;
59416;SDS011;45222;52.458;20.914;2023-10-31T01:58:58;15.50;;;9.90;;
59416;SDS011;45222;52.458;20.914;2023-10-31T02:02:46;15.50;;;9.80;;
59416;SDS011;45222;52.458;20.914;2023-10-31T02:06:34;15.90;;;10.20;;
59416;SDS011;45222;52.458;20.914;2023-10-31T02:10:22;16.50;;;9.30;;
59416;SDS011;45222;52.458;20.914;2023-10-31T02:14:09;17.20;;;10.00;;
59416;SDS011;45222;52.458;20.914;2023-10-31T02:17:57;17.00;;;9.60;;
59416;SDS011;45222;52.458;20.914;2023-10-31T02:21:45;13.20;;;8.50;;
59416;SDS011;45222;52.458;20.914;2023-10-31T02:25:33;15.50;;;10.00;;
59416;SDS011;45222;52.458;20.914;2023-10-31T02:29:21;15.60;;;9.50;;
59416;SDS011;45222;52.458;20.914;2023-10-31T02:33:09;15.50;;;9.00;;
59416;SDS011;45222;52.458;20.914;2023-10-31T02:36:57;13.80;;;9.10;;
59416;SDS011;45222;52.458;20.914;2023-10-31T02:40:44;15.20;;;8.40;;
59416;SDS011;45222;52.458;20.914;2023-10-31T02:44:32;13.50;;;8.30;;
59416;SDS011;45222;52.458;20.914;2023-10-31T02:48:20;14.90;;;8.40;;
59416;SDS011;45222;52.458;20.914;2023-10-31T02:55:55;13.90;;;8.20;;
59416;SDS011;45222;52.458;20.914;2023-10-31T02:59:43;13.30;;;8.30;;
59416;SDS011;45222;52.458;20.914;2023-10-31T03:03:31;14.40;;;8.80;;
59416;SDS011;45222;52.458;20.914;2023-10-31T03:07:19;13.20;;;8.10;;
59416;SDS011;45222;52.458;20.914;2023-10-31T03:11:07;12.80;;;7.30;;
59416;SDS011;45222;52.458;20.914;2023-10-31T03:14:55;12.00;;;7.80;;
59416;SDS011;45222;52.458;20.914;2023-10-31T03:18:43;11.10;;;7.10;;
59416;SDS011;45222;52.458;20.914;2023-10-31T03:22:31;12.50;;;7.20;;
59416;SDS011;45222;52.458;20.914;2023-10-31T03:26:19;14.60;;;7.50;;
59416;SDS011;45222;52.458;20.914;2023-10-31T03:30:08;11.50;;;7.40;;
59416;SDS011;45222;52.458;20.914;2023-10-31T03:33:57;12.20;;;7.40;;
59416;SDS011;45222;52.458;20.914;2023-10-31T03:37:45;13.60;;;7.40;;
59416;SDS011;45222;52.458;20.914;2023-10-31T03:41:33;11.10;;;7.60;;
59416;SDS011;45222;52.458;20.914;2023-10-31T03:45:20;11.10;;;6.50;;
59416;SDS011;45222;52.458;20.914;2023-10-31T03:49:08;13.50;;;6.90;;
59416;SDS011;45222;52.458;20.914;2023-10-31T03:52:56;11.50;;;6.20;;
59416;SDS011;45222;52.458;20.914;2023-10-31T03:56:44;12.70;;;6.90;;
59416;SDS011;45222;52.458;20.914;2023-10-31T04:00:33;11.90;;;6.90;;
59416;SDS011;45222;52.458;20.914;2023-10-31T04:04:21;13.40;;;7.30;;
59416;SDS011;45222;52.458;20.914;2023-10-31T04:08:09;12.00;;;6.50;;
59416;SDS011;45222;52.458;20.914;2023-10-31T04:11:56;12.10;;;6.90;;
59416;SDS011;45222;52.458;20.914;2023-10-31T04:15:44;13.20;;;6.50;;
59416;SDS011;45222;52.458;20.914;2023-10-31T04:19:32;12.10;;;6.70;;
59416;SDS011;45222;52.458;20.914;2023-10-31T04:23:20;12.70;;;6.70;;
59416;SDS011;45222;52.458;20.914;2023-10-31T04:27:08;12.20;;;7.10;;
59416;SDS011;45222;52.458;20.914;2023-10-31T04:30:56;11.40;;;6.60;;
59416;SDS011;45222;52.458;20.914;2023-10-31T04:34:44;13.10;;;6.70;;
59416;SDS011;45222;52.458;20.914;2023-10-31T04:38:32;9.80;;;5.70;;
59416;SDS011;45222;52.458;20.914;2023-10-31T04:42:22;11.10;;;6.10;;
59416;SDS011;45222;52.458;20.914;2023-10-31T04:46:10;11.70;;;6.70;;
59416;SDS011;45222;52.458;20.914;2023-10-31T04:49:57;12.40;;;5.70;;
59416;SDS011;45222;52.458;20.914;2023-10-31T04:53:45;11.20;;;5.30;;
59416;SDS011;45222;52.458;20.914;2023-10-31T04:57:33;11.90;;;5.50;;
59416;SDS011;45222;52.458;20.914;2023-10-31T05:01:21;11.30;;;5.40;;
59416;SDS011;45222;52.458;20.914;2023-10-31T05:05:09;10.90;;;6.00;;
59416;SDS011;45222;52.458;20.914;2023-10-31T05:08:57;11.00;;;5.50;;
59416;SDS011;45222;52.458;20.914;2023-10-31T05:12:47;9.60;;;5.20;;
59416;SDS011;45222;52.458;20.914;2023-10-31T05:16:40;10.10;;;4.90;;
59416;SDS011;45222;52.458;20.914;2023-10-31T05:20:28;10.70;;;5.10;;
59416;SDS011;45222;52.458;20.914;2023-10-31T05:24:16;9.80;;;4.70;;
59416;SDS011;45222;52.458;20.914;2023-10-31T05:28:04;12.30;;;5.00;;
59416;SDS011;45222;52.458;20.914;2023-10-31T05:31:52;11.00;;;4.90;;
59416;SDS011;45222;52.458;20.914;2023-10-31T05:35:40;9.70;;;5.40;;
59416;SDS011;45222;52.458;20.914;2023-10-31T05:39:28;10.60;;;5.20;;
59416;SDS011;45222;52.458;20.914;2023-10-31T05:43:15;12.30;;;5.20;;
59416;SDS011;45222;52.458;20.914;2023-10-31T05:47:03;11.00;;;4.40;;
59416;SDS011;45222;52.458;20.914;2023-10-31T05:50:51;9.40;;;4.60;;
59416;SDS011;45222;52.458;20.914;2023-10-31T05:54:39;7.60;;;4.40;;
59416;SDS011;45222;52.458;20.914;2023-10-31T05:58:27;10.90;;;4.70;;
59416;SDS011;45222;52.458;20.914;2023-10-31T06:02:15;8.20;;;4.20;;
59416;SDS011;45222;52.458;20.914;2023-10-31T06:06:03;10.40;;;4.60;;
59416;SDS011;45222;52.458;20.914;2023-10-31T06:09:53;10.10;;;4.30;;
59416;SDS011;45222;52.458;20.914;2023-10-31T06:13:40;11.90;;;4.40;;
59416;SDS011;45222;52.458;20.914;2023-10-31T06:17:29;9.30;;;4.50;;
59416;SDS011;45222;52.458;20.914;2023-10-31T06:21:19;10.70;;;4.20;;
59416;SDS011;45222;52.458;20.914;2023-10-31T06:25:07;11.70;;;4.40;;
59416;SDS011;45222;52.458;20.914;2023-10-31T06:28:55;9.80;;;4.00;;
59416;SDS011;45222;52.458;20.914;2023-10-31T06:32:43;11.60;;;4.60;;
59416;SDS011;45222;52.458;20.914;2023-10-31T06:36:30;10.10;;;4.70;;
59416;SDS011;45222;52.458;20.914;2023-10-31T06:40:18;11.10;;;4.60;;
59416;SDS011;45222;52.458;20.914;2023-10-31T06:44:06;9.90;;;4.50;;
59416;SDS011;45222;52.458;20.914;2023-10-31T06:47:54;8.80;;;4.50;;
59416;SDS011;45222;52.458;20.914;2023-10-31T06:51:42;10.40;;;4.60;;
59416;SDS011;45222;52.458;20.914;2023-10-31T06:55:30;10.30;;;4.40;;
59416;SDS011;45222;52.458;20.914;2023-10-31T06:59:18;10.50;;;4.40;;
59416;SDS011;45222;52.458;20.914;2023-10-31T07:03:06;10.40;;;4.80;;
59416;SDS011;45222;52.458;20.914;2023-10-31T07:06:59;10.70;;;4.80;;
59416;SDS011;45222;52.458;20.914;2023-10-31T07:10:47;9.80;;;4.70;;
59416;SDS011;45222;52.458;20.914;2023-10-31T07:14:35;12.60;;;5.10;;
59416;SDS011;45222;52.458;20.914;2023-10-31T07:18:23;8.90;;;3.90;;
59416;SDS011;45222;52.458;20.914;2023-10-31T07:22:11;8.90;;;4.30;;
59416;SDS011;45222;52.458;20.914;2023-10-31T07:25:58;10.20;;;4.90;;
59416;SDS011;45222;52.458;20.914;2023-10-31T07:29:46;9.60;;;4.30;;
59416;SDS011;45222;52.458;20.914;2023-10-31T07:33:34;8.60;;;4.90;;
59416;SDS011;45222;52.458;20.914;2023-10-31T07:37:22;10.90;;;4.50;;
59416;SDS011;45222;52.458;20.914;2023-10-31T07:41:10;12.00;;;4.90;;
59416;SDS011;45222;52.458;20.914;2023-10-31T07:44:58;9.80;;;5.00;;
59416;SDS011;45222;52.458;20.914;2023-10-31T07:48:46;10.50;;;5.10;;
59416;SDS011;45222;52.458;20.914;2023-10-31T07:52:34;9.70;;;4.40;;
59416;SDS011;45222;52.458;20.914;2023-10-31T07:56:22;10.10;;;4.80;;
59416;SDS011;45222;52.458;20.914;2023-10-31T08:00:11;11.80;;;5.30;;
59416;SDS011;45222;52.458;20.914;2023-10-31T08:03:59;12.60;;;4.90;;
59416;SDS011;45222;52.458;20.914;2023-10-31T08:07:47;8.90;;;4.40;;
59416;SDS011;45222;52.458;20.914;2023-10-31T08:11:35;13.70;;;4.60;;
59416;SDS011;45222;52.458;20.914;2023-10-31T08:15:23;8.90;;;4.60;;
59416;SDS011;45222;52.458;20.914;2023-10-31T08:19:11;11.60;;;4.50;;
59416;SDS011;45222;52.458;20.914;2023-10-31T08:22:59;9.50;;;4.20;;
59416;SDS011;45222;52.458;20.914;2023-10-31T08:26:47;11.10;;;4.40;;
59416;SDS011;45222;52.458;20.914;2023-10-31T08:30:35;11.00;;;4.60;;
59416;SDS011;45222;52.458;20.914;2023-10-31T08:34:23;10.10;;;4.90;;
59416;SDS011;45222;52.458;20.914;2023-10-31T08:38:11;11.20;;;4.70;;
59416;SDS011;45222;52.458;20.914;2023-10-31T08:41:58;10.10;;;5.00;;
59416;SDS011;45222;52.458;20.914;2023-10-31T08:45:46;14.60;;;5.10;;
59416;SDS011;45222;52.458;20.914;2023-10-31T08:49:34;9.80;;;5.10;;
59416;SDS011;45222;52.458;20.914;2023-10-31T08:53:22;11.60;;;5.80;;
59416;SDS011;45222;52.458;20.914;2023-10-31T08:57:10;12.90;;;5.10;;
59416;SDS011;45222;52.458;20.914;2023-10-31T09:00:58;10.60;;;4.40;;
59416;SDS011;45222;52.458;20.914;2023-10-31T09:04:45;10.30;;;4.40;;
59416;SDS011;45222;52.458;20.914;2023-10-31T09:08:34;11.70;;;4.70;;
59416;SDS011;45222;52.458;20.914;2023-10-31T09:12:23;9.90;;;4.50;;
59416;SDS011;45222;52.458;20.914;2023-10-31T09:16:11;13.50;;;5.40;;
59416;SDS011;45222;52.458;20.914;2023-10-31T09:19:59;10.30;;;4.00;;
59416;SDS011;45222;52.458;20.914;2023-10-31T09:23:47;10.70;;;4.10;;
59416;SDS011;45222;52.458;20.914;2023-10-31T09:27:35;7.80;;;3.60;;
59416;SDS011;45222;52.458;20.914;2023-10-31T09:31:23;9.80;;;3.70;;
59416;SDS011;45222;52.458;20.914;2023-10-31T09:35:11;10.60;;;3.90;;
59416;SDS011;45222;52.458;20.914;2023-10-31T09:38:59;9.50;;;3.80;;
59416;SDS011;45222;52.458;20.914;2023-10-31T09:42:47;7.70;;;3.50;;
59416;SDS011;45222;52.458;20.914;2023-10-31T09:46:35;8.80;;;3.90;;
59416;SDS011;45222;52.458;20.914;2023-10-31T09:50:24;8.10;;;3.50;;
59416;SDS011;45222;52.458;20.914;2023-10-31T09:54:12;9.10;;;4.00;;
59416;SDS011;45222;52.458;20.914;2023-10-31T09:58:00;7.30;;;3.60;;
59416;SDS011;45222;52.458;20.914;2023-10-31T10:01:48;10.50;;;3.60;;
59416;SDS011;45222;52.458;20.914;2023-10-31T10:05:36;10.80;;;4.30;;
59416;SDS011;45222;52.458;20.914;2023-10-31T10:09:24;8.40;;;3.90;;
59416;SDS011;45222;52.458;20.914;2023-10-31T10:13:13;12.70;;;4.40;;
59416;SDS011;45222;52.458;20.914;2023-10-31T10:17:02;8.60;;;3.90;;
59416;SDS011;45222;52.458;20.914;2023-10-31T10:21:02;8.50;;;3.60;;
59416;SDS011;45222;52.458;20.914;2023-10-31T10:24:51;8.90;;;3.60;;
59416;SDS011;45222;52.458;20.914;2023-10-31T10:28:39;9.70;;;3.70;;
59416;SDS011;45222;52.458;20.914;2023-10-31T10:32:26;9.70;;;4.40;;
59416;SDS011;45222;52.458;20.914;2023-10-31T10:36:14;9.50;;;4.40;;
59416;SDS011;45222;52.458;20.914;2023-10-31T10:40:03;8.10;;;3.90;;
59416;SDS011;45222;52.458;20.914;2023-10-31T10:43:55;9.00;;;4.20;;
59416;SDS011;45222;52.458;20.914;2023-10-31T10:47:50;8.00;;;3.50;;
59416;SDS011;45222;52.458;20.914;2023-10-31T10:51:43;8.40;;;4.00;;
59416;SDS011;45222;52.458;20.914;2023-10-31T10:55:39;8.80;;;4.20;;
59416;SDS011;45222;52.458;20.914;2023-10-31T10:59:34;8.70;;;3.80;;
59416;SDS011;45222;52.458;20.914;2023-10-31T11:03:27;11.80;;;3.80;;
59416;SDS011;45222;52.458;20.914;2023-10-31T11:07:17;8.40;;;4.00;;
59416;SDS011;45222;52.458;20.914;2023-10-31T11:11:07;7.60;;;3.60;;
59416;SDS011;45222;52.458;20.914;2023-10-31T11:14:56;10.70;;;3.90;;
59416;SDS011;45222;52.458;20.914;2023-10-31T11:18:45;8.50;;;3.10;;
59416;SDS011;45222;52.458;20.914;2023-10-31T11:22:43;7.70;;;3.50;;
59416;SDS011;45222;52.458;20.914;2023-10-31T11:26:33;7.50;;;3.10;;
59416;SDS011;45222;52.458;20.914;2023-10-31T11:30:36;7.90;;;3.10;;
59416;SDS011;45222;52.458;20.914;2023-10-31T11:34:25;8.30;;;2.90;;
59416;SDS011;45222;52.458;20.914;2023-10-31T11:38:14;7.60;;;3.10;;
59416;SDS011;45222;52.458;20.914;2023-10-31T11:42:02;8.70;;;3.30;;
59416;SDS011;45222;52.458;20.914;2023-10-31T11:46:05;14.40;;;2.80;;
59416;SDS011;45222;52.458;20.914;2023-10-31T11:50:04;5.10;;;2.50;;
59416;SDS011;45222;52.458;20.914;2023-10-31T11:53:53;6.60;;;2.50;;
59416;SDS011;45222;52.458;20.914;2023-10-31T11:57:41;8.30;;;2.80;;
59416;SDS011;45222;52.458;20.914;2023-10-31T12:01:30;7.00;;;2.50;;
59416;SDS011;45222;52.458;20.914;2023-10-31T12:09:04;12.70;;;3.20;;
59416;SDS011;45222;52.458;20.914;2023-10-31T12:12:53;6.30;;;2.90;;
59416;SDS011;45222;52.458;20.914;2023-10-31T12:16:41;6.40;;;2.90;;
59416;SDS011;45222;52.458;20.914;2023-10-31T12:20:29;7.00;;;3.00;;
59416;SDS011;45222;52.458;20.914;2023-10-31T12:24:18;5.80;;;2.90;;
59416;SDS011;45222;52.458;20.914;2023-10-31T12:31:52;5.80;;;3.00;;
59416;SDS011;45222;52.458;20.914;2023-10-31T12:35:42;7.20;;;2.80;;
59416;SDS011;45222;52.458;20.914;2023-10-31T12:39:31;7.70;;;2.90;;
59416;SDS011;45222;52.458;20.914;2023-10-31T12:43:19;4.80;;;2.30;;
59416;SDS011;45222;52.458;20.914;2023-10-31T12:47:08;6.80;;;2.80;;
59416;SDS011;45222;52.458;20.914;2023-10-31T12:51:08;7.70;;;2.70;;
59416;SDS011;45222;52.458;20.914;2023-10-31T12:54:57;7.50;;;2.70;;
59416;SDS011;45222;52.458;20.914;2023-10-31T12:58:58;7.30;;;2.80;;
59416;SDS011;45222;52.458;20.914;2023-10-31T13:02:46;5.00;;;2.40;;
59416;SDS011;45222;52.458;20.914;2023-10-31T13:06:34;5.60;;;2.20;;
59416;SDS011;45222;52.458;20.914;2023-10-31T13:10:23;3.80;;;1.90;;
59416;SDS011;45222;52.458;20.914;2023-10-31T13:17:58;3.80;;;2.10;;
59416;SDS011;45222;52.458;20.914;2023-10-31T13:21:46;5.40;;;2.40;;
59416;SDS011;45222;52.458;20.914;2023-10-31T13:25:34;3.70;;;2.10;;
59416;SDS011;45222;52.458;20.914;2023-10-31T13:29:22;3.50;;;2.00;;
59416;SDS011;45222;52.458;20.914;2023-10-31T13:33:12;5.20;;;2.20;;
59416;SDS011;45222;52.458;20.914;2023-10-31T13:37:00;4.90;;;2.20;;
59416;SDS011;45222;52.458;20.914;2023-10-31T13:40:48;5.10;;;2.20;;
59416;SDS011;45222;52.458;20.914;2023-10-31T13:44:36;3.00;;;2.10;;
59416;SDS011;45222;52.458;20.914;2023-10-31T13:48:24;4.70;;;2.30;;
59416;SDS011;45222;52.458;20.914;2023-10-31T13:52:13;5.70;;;3.50;;
59416;SDS011;45222;52.458;20.914;2023-10-31T13:56:02;6.60;;;2.40;;
59416;SDS011;45222;52.458;20.914;2023-10-31T13:59:51;4.20;;;2.40;;
59416;SDS011;45222;52.458;20.914;2023-10-31T14:03:39;2.80;;;1.80;;
59416;SDS011;45222;52.458;20.914;2023-10-31T14:07:28;4.10;;;2.30;;
59416;SDS011;45222;52.458;20.914;2023-10-31T14:11:16;4.90;;;2.30;;
59416;SDS011;45222;52.458;20.914;2023-10-31T14:15:05;7.10;;;2.10;;
59416;SDS011;45222;52.458;20.914;2023-10-31T14:18:54;4.00;;;2.00;;
59416;SDS011;45222;52.458;20.914;2023-10-31T14:22:42;6.60;;;2.40;;
59416;SDS011;45222;52.458;20.914;2023-10-31T14:26:34;5.00;;;2.30;;
59416;SDS011;45222;52.458;20.914;2023-10-31T14:30:25;5.30;;;2.50;;
59416;SDS011;45222;52.458;20.914;2023-10-31T14:34:12;5.80;;;1.90;;
59416;SDS011;45222;52.458;20.914;2023-10-31T14:38:00;4.70;;;2.30;;
59416;SDS011;45222;52.458;20.914;2023-10-31T14:41:48;5.10;;;2.00;;
59416;SDS011;45222;52.458;20.914;2023-10-31T14:45:36;4.20;;;1.60;;
59416;SDS011;45222;52.458;20.914;2023-10-31T14:49:24;3.60;;;1.70;;
59416;SDS011;45222;52.458;20.914;2023-10-31T14:53:12;3.60;;;1.70;;
59416;SDS011;45222;52.458;20.914;2023-10-31T14:57:00;3.60;;;1.80;;
59416;SDS011;45222;52.458;20.914;2023-10-31T15:00:48;2.70;;;1.60;;
59416;SDS011;45222;52.458;20.914;2023-10-31T15:04:36;5.80;;;1.80;;
59416;SDS011;45222;52.458;20.914;2023-10-31T15:08:24;4.40;;;2.00;;
59416;SDS011;45222;52.458;20.914;2023-10-31T15:12:12;8.10;;;2.80;;
59416;SDS011;45222;52.458;20.914;2023-10-31T15:16:00;4.80;;;1.60;;
59416;SDS011;45222;52.458;20.914;2023-10-31T15:19:48;4.30;;;2.00;;
59416;SDS011;45222;52.458;20.914;2023-10-31T15:23:36;4.30;;;1.80;;
59416;SDS011;45222;52.458;20.914;2023-10-31T15:27:29;4.20;;;2.00;;
59416;SDS011;45222;52.458;20.914;2023-10-31T15:31:17;5.30;;;2.40;;
59416;SDS011;45222;52.458;20.914;2023-10-31T15:35:05;4.90;;;2.40;;
59416;SDS011;45222;52.458;20.914;2023-10-31T15:38:54;4.80;;;2.10;;
59416;SDS011;45222;52.458;20.914;2023-10-31T15:42:42;6.70;;;2.60;;
59416;SDS011;45222;52.458;20.914;2023-10-31T15:46:30;5.50;;;2.10;;
59416;SDS011;45222;52.458;20.914;2023-10-31T15:50:21;6.70;;;2.30;;
59416;SDS011;45222;52.458;20.914;2023-10-31T15:54:09;4.90;;;2.20;;
59416;SDS011;45222;52.458;20.914;2023-10-31T15:57:57;5.40;;;2.00;;
59416;SDS011;45222;52.458;20.914;2023-10-31T16:01:45;4.40;;;2.10;;
59416;SDS011;45222;52.458;20.914;2023-10-31T16:05:33;5.10;;;2.20;;
59416;SDS011;45222;52.458;20.914;2023-10-31T16:09:21;7.60;;;2.50;;
59416;SDS011;45222;52.458;20.914;2023-10-31T16:16:56;5.10;;;2.30;;
59416;SDS011;45222;52.458;20.914;2023-10-31T16:20:45;5.20;;;2.50;;
59416;SDS011;45222;52.458;20.914;2023-10-31T16:24:34;6.90;;;3.50;;
59416;SDS011;45222;52.458;20.914;2023-10-31T16:28:22;7.10;;;2.60;;
59416;SDS011;45222;52.458;20.914;2023-10-31T16:32:13;7.20;;;3.00;;
59416;SDS011;45222;52.458;20.914;2023-10-31T16:36:01;5.10;;;2.70;;
59416;SDS011;45222;52.458;20.914;2023-10-31T16:39:50;5.90;;;3.10;;
59416;SDS011;45222;52.458;20.914;2023-10-31T16:43:38;5.40;;;2.90;;
59416;SDS011;45222;52.458;20.914;2023-10-31T16:47:26;7.10;;;3.60;;
59416;SDS011;45222;52.458;20.914;2023-10-31T16:51:17;7.20;;;2.70;;
59416;SDS011;45222;52.458;20.914;2023-10-31T16:55:06;5.10;;;2.60;;
59416;SDS011;45222;52.458;20.914;2023-10-31T16:58:55;6.70;;;2.80;;
59416;SDS011;45222;52.458;20.914;2023-10-31T17:02:42;5.30;;;2.70;;
59416;SDS011;45222;52.458;20.914;2023-10-31T17:06:31;8.00;;;2.90;;
59416;SDS011;45222;52.458;20.914;2023-10-31T17:14:06;11.10;;;8.30;;
59416;SDS011;45222;52.458;20.914;2023-10-31T17:17:54;15.10;;;10.10;;
59416;SDS011;45222;52.458;20.914;2023-10-31T17:21:42;7.10;;;3.30;;
59416;SDS011;45222;52.458;20.914;2023-10-31T17:25:32;5.90;;;2.60;;
59416;SDS011;45222;52.458;20.914;2023-10-31T17:29:20;8.60;;;3.60;;
59416;SDS011;45222;52.458;20.914;2023-10-31T17:33:08;10.50;;;8.40;;
59416;SDS011;45222;52.458;20.914;2023-10-31T17:36:57;13.30;;;6.60;;
59416;SDS011;45222;52.458;20.914;2023-10-31T17:40:46;7.20;;;3.30;;
59416;SDS011;45222;52.458;20.914;2023-10-31T17:44:35;8.70;;;4.00;;
59416;SDS011;45222;52.458;20.914;2023-10-31T17:52:10;7.70;;;4.10;;
59416;SDS011;45222;52.458;20.914;2023-10-31T17:55:58;7.40;;;3.30;;
59416;SDS011;45222;52.458;20.914;2023-10-31T17:59:46;7.40;;;3.40;;
59416;SDS011;45222;52.458;20.914;2023-10-31T18:03:34;6.90;;;3.00;;
59416;SDS011;45222;52.458;20.914;2023-10-31T18:07:23;6.30;;;2.80;;
59416;SDS011;45222;52.458;20.914;2023-10-31T18:11:11;5.70;;;2.60;;
59416;SDS011;45222;52.458;20.914;2023-10-31T18:14:59;5.60;;;2.70;;
59416;SDS011;45222;52.458;20.914;2023-10-31T18:18:48;6.90;;;2.70;;
59416;SDS011;45222;52.458;20.914;2023-10-31T18:22:37;7.90;;;2.70;;
59416;SDS011;45222;52.458;20.914;2023-10-31T18:26:24;5.10;;;2.60;;
59416;SDS011;45222;52.458;20.914;2023-10-31T18:30:12;6.60;;;2.40;;
59416;SDS011;45222;52.458;20.914;2023-10-31T18:34:00;6.70;;;3.50;;
59416;SDS011;45222;52.458;20.914;2023-10-31T18:37:49;10.40;;;4.50;;
59416;SDS011;45222;52.458;20.914;2023-10-31T18:41:37;8.00;;;4.30;;
59416;SDS011;45222;52.458;20.914;2023-10-31T18:45:27;7.80;;;3.50;;
59416;SDS011;45222;52.458;20.914;2023-10-31T18:49:15;11.30;;;4.70;;
59416;SDS011;45222;52.458;20.914;2023-10-31T18:53:03;10.40;;;6.20;;
59416;SDS011;45222;52.458;20.914;2023-10-31T18:56:52;8.20;;;3.90;;
59416;SDS011;45222;52.458;20.914;2023-10-31T19:00:42;6.00;;;3.00;;
59416;SDS011;45222;52.458;20.914;2023-10-31T19:04:30;6.30;;;3.00;;
59416;SDS011;45222;52.458;20.914;2023-10-31T19:08:18;8.20;;;4.00;;
59416;SDS011;45222;52.458;20.914;2023-10-31T19:12:07;8.40;;;4.20;;
59416;SDS011;45222;52.458;20.914;2023-10-31T19:15:55;7.60;;;3.90;;
59416;SDS011;45222;52.458;20.914;2023-10-31T19:19:43;9.60;;;4.30;;
59416;SDS011;45222;52.458;20.914;2023-10-31T19:23:31;8.50;;;4.20;;
59416;SDS011;45222;52.458;20.914;2023-10-31T19:27:19;8.60;;;4.20;;
59416;SDS011;45222;52.458;20.914;2023-10-31T19:31:08;8.60;;;4.00;;
59416;SDS011;45222;52.458;20.914;2023-10-31T19:34:56;7.20;;;3.90;;
59416;SDS011;45222;52.458;20.914;2023-10-31T19:38:44;7.30;;;3.30;;
59416;SDS011;45222;52.458;20.914;2023-10-31T19:42:34;7.70;;;3.20;;
59416;SDS011;45222;52.458;20.914;2023-10-31T19:46:22;8.80;;;3.80;;
59416;SDS011;45222;52.458;20.914;2023-10-31T19:50:11;7.80;;;3.60;;
59416;SDS011;45222;52.458;20.914;2023-10-31T19:54:00;7.30;;;3.50;;
59416;SDS011;45222;52.458;20.914;2023-10-31T19:57:48;8.30;;;4.00;;
59416;SDS011;45222;52.458;20.914;2023-10-31T20:01:36;9.60;;;4.10;;
59416;SDS011;45222;52.458;20.914;2023-10-31T20:05:24;9.70;;;4.20;;
59416;SDS011;45222;52.458;20.914;2023-10-31T20:09:13;8.20;;;3.90;;
59416;SDS011;45222;52.458;20.914;2023-10-31T20:13:01;7.00;;;3.60;;
59416;SDS011;45222;52.458;20.914;2023-10-31T20:16:49;8.40;;;4.20;;
59416;SDS011;45222;52.458;20.914;2023-10-31T20:20:37;8.30;;;3.70;;
59416;SDS011;45222;52.458;20.914;2023-10-31T20:24:26;7.60;;;3.40;;
59416;SDS011;45222;52.458;20.914;2023-10-31T20:28:14;8.60;;;3.60;;
59416;SDS011;45222;52.458;20.914;2023-10-31T20:32:01;8.00;;;3.90;;
59416;SDS011;45222;52.458;20.914;2023-10-31T20:35:49;7.70;;;4.20;;
59416;SDS011;45222;52.458;20.914;2023-10-31T20:39:37;9.30;;;4.00;;
59416;SDS011;45222;52.458;20.914;2023-10-31T20:43:25;9.10;;;4.50;;
59416;SDS011;45222;52.458;20.914;2023-10-31T20:47:14;8.60;;;3.90;;
59416;SDS011;45222;52.458;20.914;2023-10-31T20:51:02;9.00;;;4.20;;
59416;SDS011;45222;52.458;20.914;2023-10-31T20:54:50;10.10;;;4.60;;
59416;SDS011;45222;52.458;20.914;2023-10-31T20:58:38;7.40;;;4.00;;
59416;SDS011;45222;52.458;20.914;2023-10-31T21:02:27;9.10;;;3.70;;
59416;SDS011;45222;52.458;20.914;2023-10-31T21:06:14;7.60;;;4.00;;
59416;SDS011;45222;52.458;20.914;2023-10-31T21:10:03;9.90;;;4.00;;
59416;SDS011;45222;52.458;20.914;2023-10-31T21:17:40;8.30;;;4.40;;
59416;SDS011;45222;52.458;20.914;2023-10-31T21:21:28;6.90;;;3.90;;
59416;SDS011;45222;52.458;20.914;2023-10-31T21:25:17;6.80;;;3.50;;
59416;SDS011;45222;52.458;20.914;2023-10-31T21:29:05;8.20;;;3.90;;
59416;SDS011;45222;52.458;20.914;2023-10-31T21:32:53;8.40;;;4.20;;
59416;SDS011;45222;52.458;20.914;2023-10-31T21:36:41;6.80;;;3.40;;
59416;SDS011;45222;52.458;20.914;2023-10-31T21:40:29;8.00;;;3.70;;
59416;SDS011;45222;52.458;20.914;2023-10-31T21:44:17;8.20;;;3.50;;
59416;SDS011;45222;52.458;20.914;2023-10-31T21:48:10;8.40;;;3.30;;
59416;SDS011;45222;52.458;20.914;2023-10-31T21:51:58;6.50;;;3.10;;
59416;SDS011;45222;52.458;20.914;2023-10-31T21:55:46;8.30;;;3.20;;
59416;SDS011;45222;52.458;20.914;2023-10-31T21:59:34;6.90;;;3.00;;
59416;SDS011;45222;52.458;20.914;2023-10-31T22:03:22;6.50;;;3.20;;
59416;SDS011;45222;52.458;20.914;2023-10-31T22:07:10;5.60;;;2.70;;
59416;SDS011;45222;52.458;20.914;2023-10-31T22:10:59;5.80;;;2.90;;
59416;SDS011;45222;52.458;20.914;2023-10-31T22:14:47;7.70;;;3.00;;
59416;SDS011;45222;52.458;20.914;2023-10-31T22:18:35;7.90;;;3.00;;
59416;SDS011;45222;52.458;20.914;2023-10-31T22:22:23;6.80;;;3.20;;
59416;SDS011;45222;52.458;20.914;2023-10-31T22:26:11;5.60;;;2.20;;
59416;SDS011;45222;52.458;20.914;2023-10-31T22:29:59;6.60;;;2.60;;
59416;SDS011;45222;52.458;20.914;2023-10-31T22:33:48;6.00;;;2.80;;
59416;SDS011;45222;52.458;20.914;2023-10-31T22:37:36;5.60;;;2.40;;
59416;SDS011;45222;52.458;20.914;2023-10-31T22:41:24;6.80;;;2.60;;
59416;SDS011;45222;52.458;20.914;2023-10-31T22:45:12;6.60;;;2.60;;
59416;SDS011;45222;52.458;20.914;2023-10-31T22:49:01;7.00;;;2.60;;
59416;SDS011;45222;52.458;20.914;2023-10-31T22:52:49;5.90;;;2.40;;
59416;SDS011;45222;52.458;20.914;2023-10-31T22:56:37;6.30;;;2.40;;